createdAt,value
2016-04-04T00:00:54.706Z,18.55
2016-04-04T00:01:54.723Z,18.52
2016-04-04T00:02:54.774Z,18.5
2016-04-04T00:03:54.760Z,18.47
2016-04-04T00:04:54.638Z,18.52
2016-04-04T00:05:54.797Z,18.4
2016-04-04T00:06:54.815Z,18.47
2016-04-04T00:07:54.865Z,18.53
2016-04-04T00:08:54.883Z,18.4
2016-04-04T00:09:54.901Z,18.47
2016-04-04T00:10:54.920Z,18.43
2016-04-04T00:11:54.939Z,18.41
2016-04-04T00:12:54.956Z,18.4
2016-04-04T00:13:54.991Z,18.43
2016-04-04T00:14:55.025Z,18.38
2016-04-04T00:15:55.028Z,18.41
2016-04-04T00:16:55.045Z,18.37
2016-04-04T00:17:54.907Z,18.34
2016-04-04T00:18:55.129Z,18.34
2016-04-04T00:19:55.116Z,18.34
2016-04-04T00:20:55.119Z,18.35
2016-04-04T00:21:55.138Z,18.25
2016-04-04T00:22:55.171Z,18.29
2016-04-04T00:23:55.205Z,18.38
2016-04-04T00:24:55.223Z,18.38
2016-04-04T00:25:55.241Z,18.26
2016-04-04T00:26:55.260Z,18.23
2016-04-04T00:27:55.294Z,18.23
2016-04-04T00:28:55.327Z,18.28
2016-04-04T00:29:55.315Z,18.33
2016-04-04T00:30:55.348Z,18.37
2016-04-04T00:31:55.351Z,18.31
2016-04-04T00:32:55.401Z,18.38
2016-04-04T00:33:55.435Z,18.26
2016-04-04T00:34:55.422Z,18.29
2016-04-04T00:35:55.440Z,18.25
2016-04-04T00:36:55.473Z,18.25
2016-04-04T00:37:55.492Z,18.22
2016-04-04T00:38:55.512Z,18.23
2016-04-04T00:39:55.528Z,18.28
2016-04-04T00:40:55.564Z,18.18
2016-04-04T00:41:55.581Z,18.35
2016-04-04T00:42:55.599Z,18.34
2016-04-04T00:43:55.617Z,18.34
2016-04-04T00:44:55.637Z,18.29
2016-04-04T00:45:55.686Z,18.28
2016-04-04T00:46:55.705Z,18.13
2016-04-04T00:47:55.707Z,18.26
2016-04-04T00:48:55.710Z,18.25
2016-04-04T00:49:55.774Z,18.25
2016-04-04T00:50:55.777Z,18.22
2016-04-04T00:51:55.780Z,18.23
2016-04-04T00:52:55.814Z,18.29
2016-04-04T00:53:55.832Z,18.13
2016-04-04T00:54:55.851Z,18.18
2016-04-04T00:55:55.869Z,18.07
2016-04-04T00:56:55.888Z,18.1
2016-04-04T00:57:55.921Z,17.98
2016-04-04T00:58:55.955Z,17.98
2016-04-04T00:59:55.957Z,18.01
2016-04-04T01:00:55.976Z,18.07
2016-04-04T01:01:55.995Z,18.19
2016-04-04T01:02:56.013Z,18.15
2016-04-04T01:03:56.063Z,18.15
2016-04-04T01:04:55.907Z,18.2
2016-04-04T01:05:55.924Z,18.18
2016-04-04T01:06:56.099Z,18.19
2016-04-04T01:07:56.118Z,18.18
2016-04-04T01:08:55.387Z,18.19
2016-04-04T01:09:56.170Z,18.19
2016-04-04T01:10:56.188Z,18.18
2016-04-04T01:11:56.207Z,18.19
2016-04-04T01:12:56.225Z,18.28
2016-04-04T01:13:56.243Z,18.19
2016-04-04T01:14:56.277Z,18.26
2016-04-04T01:15:56.295Z,18.25
2016-04-04T01:16:56.314Z,18.16
2016-04-04T01:17:56.331Z,18.37
2016-04-04T01:18:56.350Z,18.19
2016-04-04T01:19:56.369Z,18.23
2016-04-04T01:20:56.386Z,18.23
2016-04-04T01:21:56.421Z,18.13
2016-04-04T01:22:56.439Z,18.18
2016-04-04T01:23:56.458Z,18.19
2016-04-04T01:24:56.476Z,18.22
2016-04-04T01:25:56.510Z,18.18
2016-04-04T01:26:56.560Z,18.18
2016-04-04T01:27:56.562Z,18.13
2016-04-04T01:28:56.580Z,18.23
2016-04-04T01:29:56.426Z,18.25
2016-04-04T01:30:56.616Z,18.23
2016-04-04T01:31:56.619Z,18.22
2016-04-04T01:32:56.638Z,18.25
2016-04-04T01:33:56.657Z,18.23
2016-04-04T01:34:56.706Z,18.33
2016-04-04T01:35:56.709Z,18.34
2016-04-04T01:36:56.743Z,18.22
2016-04-04T01:37:56.777Z,18.37
2016-04-04T01:38:56.779Z,18.35
2016-04-04T01:39:56.813Z,18.37
2016-04-04T01:40:56.816Z,18.29
2016-04-04T01:41:56.850Z,18.33
2016-04-04T01:42:56.868Z,18.37
2016-04-04T01:43:56.886Z,18.31
2016-04-04T01:44:56.904Z,18.37
2016-04-04T01:45:56.923Z,18.38
2016-04-04T01:46:56.925Z,18.38
2016-04-04T01:47:56.975Z,18.38
2016-04-04T01:48:56.993Z,18.41
2016-04-04T01:49:57.027Z,18.37
2016-04-04T01:50:57.045Z,18.34
2016-04-04T01:51:57.047Z,18.38
2016-04-04T01:52:57.082Z,18.37
2016-04-04T01:53:57.100Z,18.4
2016-04-04T01:54:57.118Z,18.38
2016-04-04T01:55:57.152Z,18.45
2016-04-04T01:56:57.155Z,18.44
2016-04-04T01:57:57.205Z,18.45
2016-04-04T01:58:57.207Z,18.43
2016-04-04T01:59:57.210Z,18.49
2016-04-04T02:00:57.249Z,18.47
2016-04-04T02:01:57.268Z,18.43
2016-04-04T02:02:57.286Z,18.47
2016-04-04T02:03:57.304Z,18.41
2016-04-04T02:04:57.323Z,18.53
2016-04-04T02:05:57.356Z,18.47
2016-04-04T02:06:57.359Z,18.49
2016-04-04T02:07:57.393Z,18.47
2016-04-04T02:08:57.411Z,18.52
2016-04-04T02:09:57.445Z,18.52
2016-04-04T02:10:57.464Z,18.52
2016-04-04T02:11:57.498Z,18.49
2016-04-04T02:12:57.500Z,18.55
2016-04-04T02:13:57.519Z,18.6
2016-04-04T02:14:57.553Z,18.55
2016-04-04T02:15:57.571Z,18.52
2016-04-04T02:16:57.589Z,18.52
2016-04-04T02:17:57.608Z,18.47
2016-04-04T02:18:57.625Z,18.5
2016-04-04T02:19:57.660Z,18.43
2016-04-04T02:20:57.725Z,18.38
2016-04-04T02:21:57.712Z,18.56
2016-04-04T02:22:57.731Z,18.41
2016-04-04T02:23:57.749Z,18.52
2016-04-04T02:24:57.767Z,18.43
2016-04-04T02:25:57.769Z,18.52
2016-04-04T02:26:57.819Z,18.47
2016-04-04T02:27:57.869Z,18.41
2016-04-04T02:28:57.888Z,18.45
2016-04-04T02:29:57.890Z,18.5
2016-04-04T02:30:58.096Z,18.45
2016-04-04T02:31:57.911Z,18.52
2016-04-04T02:32:57.929Z,18.55
2016-04-04T02:33:57.963Z,18.55
2016-04-04T02:34:57.982Z,18.55
2016-04-04T02:35:57.999Z,18.58
2016-04-04T02:36:58.018Z,18.55
2016-04-04T02:37:58.037Z,18.56
2016-04-04T02:38:58.054Z,18.6
2016-04-04T02:39:58.073Z,18.6
2016-04-04T02:40:58.107Z,18.63
2016-04-04T02:41:58.140Z,18.63
2016-04-04T02:42:58.143Z,18.63
2016-04-04T02:43:58.178Z,18.62
2016-04-04T02:44:58.196Z,18.74
2016-04-04T02:45:58.198Z,18.75
2016-04-04T02:46:58.233Z,18.73
2016-04-04T02:47:58.251Z,18.74
2016-04-04T02:48:58.269Z,18.71
2016-04-04T02:49:58.287Z,18.66
2016-04-04T02:50:58.305Z,18.68
2016-04-04T02:51:58.355Z,18.65
2016-04-04T02:52:58.358Z,18.7
2016-04-04T02:53:58.376Z,18.7
2016-04-04T02:54:58.394Z,18.63
2016-04-04T02:55:58.428Z,18.71
2016-04-04T02:56:58.446Z,18.74
2016-04-04T02:57:58.466Z,18.7
2016-04-04T02:58:58.499Z,18.73
2016-04-04T02:59:58.518Z,18.63
2016-04-04T03:00:58.535Z,18.56
2016-04-04T03:01:58.555Z,18.45
2016-04-04T03:02:58.572Z,18.5
2016-04-04T03:03:58.590Z,18.52
2016-04-04T03:04:58.625Z,18.35
2016-04-04T03:05:58.659Z,18.44
2016-04-04T03:06:58.662Z,18.44
2016-04-04T03:07:58.735Z,18.52
2016-04-04T03:08:58.722Z,18.52
2016-04-04T03:09:58.741Z,18.56
2016-04-04T03:11:12.855Z,18.53
2016-04-04T03:11:58.762Z,18.5
2016-04-04T03:12:58.796Z,18.52
2016-04-04T03:13:58.798Z,18.53
2016-04-04T03:14:58.832Z,18.52
2016-04-04T03:15:58.866Z,18.5
2016-04-04T03:16:58.868Z,18.53
2016-04-04T03:17:58.918Z,18.5
2016-04-04T03:18:58.937Z,18.53
2016-04-04T03:19:58.971Z,18.52
2016-04-04T03:20:58.973Z,18.58
2016-04-04T03:21:59.007Z,18.47
2016-04-04T03:22:59.010Z,18.45
2016-04-04T03:23:59.012Z,18.45
2016-04-04T03:24:59.047Z,18.44
2016-04-04T03:25:59.065Z,18.5
2016-04-04T03:26:59.083Z,18.47
2016-04-04T03:27:59.117Z,18.5
2016-04-04T03:28:59.151Z,18.47
2016-04-04T03:29:59.153Z,18.45
2016-04-04T03:30:59.172Z,18.53
2016-04-04T03:31:59.191Z,18.5
2016-04-04T03:32:59.224Z,18.4
2016-04-04T03:33:59.242Z,18.4
2016-04-04T03:34:59.261Z,18.33
2016-04-04T03:35:59.295Z,18.4
2016-04-04T03:36:59.329Z,18.35
2016-04-04T03:37:59.332Z,18.37
2016-04-04T03:38:59.350Z,18.37
2016-04-04T03:39:59.369Z,18.25
2016-04-04T03:40:59.386Z,18.29
2016-04-04T03:41:59.404Z,18.43
2016-04-04T03:42:59.439Z,18.33
2016-04-04T03:43:59.457Z,18.33
2016-04-04T03:44:59.506Z,18.15
2016-04-04T03:45:59.494Z,18.31
2016-04-04T03:46:59.528Z,18.2
2016-04-04T03:47:59.530Z,18.33
2016-04-04T03:48:59.564Z,18.28
2016-04-04T03:49:59.583Z,18.26
2016-04-04T03:50:59.601Z,18.22
2016-04-04T03:51:59.665Z,18.19
2016-04-04T03:52:59.512Z,18.22
2016-04-04T03:53:59.671Z,18.16
2016-04-04T03:54:59.690Z,18.23
2016-04-04T03:55:59.692Z,18.23
2016-04-04T03:56:59.726Z,18.19
2016-04-04T03:57:59.761Z,18.2
2016-04-04T03:58:59.810Z,18.2
2016-04-04T03:59:59.812Z,18.13
2016-04-04T04:00:59.831Z,18.2
2016-04-04T04:01:59.834Z,18.19
2016-04-04T04:02:59.852Z,18.15
2016-04-04T04:03:59.902Z,18.23
2016-04-04T04:04:59.905Z,18.2
2016-04-04T04:05:59.923Z,18.26
2016-04-04T04:07:00.051Z,18.2
2016-04-04T04:07:59.992Z,18.25
2016-04-04T04:09:00.009Z,18.22
2016-04-04T04:10:00.012Z,18.2
2016-04-04T04:11:00.062Z,18.23
2016-04-04T04:12:00.049Z,18.29
2016-04-04T04:13:00.098Z,18.25
2016-04-04T04:14:00.086Z,18.34
2016-04-04T04:15:00.120Z,18.43
2016-04-04T04:16:00.122Z,18.31
2016-04-04T04:17:00.156Z,18.34
2016-04-04T04:18:00.175Z,18.43
2016-04-04T04:19:00.193Z,18.43
2016-04-04T04:20:00.211Z,18.44
2016-04-04T04:21:00.244Z,18.49
2016-04-04T04:22:00.248Z,18.47
2016-04-04T04:23:00.313Z,18.5
2016-04-04T04:24:00.331Z,18.47
2016-04-04T04:25:00.350Z,18.56
2016-04-04T04:26:00.337Z,18.62
2016-04-04T04:27:00.355Z,18.7
2016-04-04T04:28:00.435Z,18.75
2016-04-04T04:29:00.392Z,18.75
2016-04-04T04:30:00.457Z,18.68
2016-04-04T04:31:00.443Z,18.65
2016-04-04T04:32:00.478Z,18.58
2016-04-04T04:33:00.495Z,18.52
2016-04-04T04:33:59.749Z,18.41
2016-04-04T04:35:00.548Z,18.47
2016-04-04T04:36:00.551Z,18.43
2016-04-04T04:37:00.773Z,18.4
2016-04-04T04:38:00.603Z,18.15
2016-04-04T04:39:00.637Z,18.22
2016-04-04T04:40:00.655Z,18.08
2016-04-04T04:41:00.674Z,18.07
2016-04-04T04:42:00.676Z,18
2016-04-04T04:43:00.695Z,17.89
2016-04-04T04:44:00.744Z,17.86
2016-04-04T04:45:00.763Z,17.74
2016-04-04T04:46:00.797Z,17.76
2016-04-04T04:47:00.783Z,17.74
2016-04-04T04:48:00.802Z,17.71
2016-04-04T04:49:00.836Z,17.63
2016-04-04T04:50:00.855Z,17.54
2016-04-04T04:51:00.872Z,17.49
2016-04-04T04:52:00.891Z,17.51
2016-04-04T04:53:00.910Z,17.49
2016-04-04T04:54:00.943Z,17.49
2016-04-04T04:55:00.946Z,17.44
2016-04-04T04:56:00.963Z,17.34
2016-04-04T04:57:00.982Z,17.38
2016-04-04T04:58:01.016Z,17.3
2016-04-04T04:59:01.035Z,17.36
2016-04-04T05:00:01.053Z,17.31
2016-04-04T05:01:01.087Z,17.33
2016-04-04T05:02:01.121Z,17.3
2016-04-04T05:03:01.123Z,17.2
2016-04-04T05:04:01.143Z,17.22
2016-04-04T05:05:01.176Z,17.15
2016-04-04T05:06:01.179Z,17.15
2016-04-04T05:07:01.197Z,17.24
2016-04-04T05:08:01.246Z,17.11
2016-04-04T05:09:01.249Z,17.11
2016-04-04T05:10:01.267Z,17.08
2016-04-04T05:11:01.270Z,17.11
2016-04-04T05:12:01.303Z,17.09
2016-04-04T05:13:01.339Z,16.96
2016-04-04T05:14:01.356Z,16.94
2016-04-04T05:15:01.389Z,17.08
2016-04-04T05:16:01.378Z,17.08
2016-04-04T05:17:01.412Z,17.01
2016-04-04T05:18:01.414Z,17.08
2016-04-04T05:19:01.447Z,16.96
2016-04-04T05:20:01.467Z,17.09
2016-04-04T05:21:01.485Z,16.97
2016-04-04T05:22:01.502Z,17.02
2016-04-04T05:23:01.521Z,17.12
2016-04-04T05:24:01.574Z,17.05
2016-04-04T05:25:01.621Z,16.99
2016-04-04T05:26:01.576Z,16.94
2016-04-04T05:27:01.491Z,16.97
2016-04-04T05:28:01.691Z,16.97
2016-04-04T05:29:01.631Z,16.97
2016-04-04T05:30:01.665Z,17.01
2016-04-04T05:31:01.683Z,16.96
2016-04-04T05:32:01.749Z,17.04
2016-04-04T05:33:01.720Z,16.97
2016-04-04T05:34:01.738Z,16.99
2016-04-04T05:35:01.803Z,17.05
2016-04-04T05:36:01.790Z,17.05
2016-04-04T05:37:01.809Z,17.05
2016-04-04T05:38:01.812Z,17.06
2016-04-04T05:39:01.846Z,17.19
2016-04-04T05:40:01.864Z,17.22
2016-04-04T05:41:01.882Z,17.16
2016-04-04T05:42:01.916Z,17.11
2016-04-04T05:43:01.919Z,17.19
2016-04-04T05:44:01.937Z,17.22
2016-04-04T05:45:01.970Z,17.2
2016-04-04T05:46:01.974Z,17.15
2016-04-04T05:47:02.008Z,17.09
2016-04-04T05:48:02.042Z,17.09
2016-04-04T05:50:02.063Z,17.16
2016-04-04T05:51:02.081Z,17.19
2016-04-04T05:52:02.130Z,17.22
2016-04-04T05:53:02.133Z,17.16
2016-04-04T05:54:02.182Z,17.19
2016-04-04T05:55:02.170Z,17.23
2016-04-04T05:56:02.172Z,17.24
2016-04-04T05:57:02.206Z,17.26
2016-04-04T05:58:02.241Z,17.29
2016-04-04T05:59:02.259Z,17.3
2016-04-04T06:00:02.277Z,17.33
2016-04-04T06:01:02.310Z,17.33
2016-04-04T06:02:02.329Z,17.38
2016-04-04T06:03:02.332Z,17.29
2016-04-04T06:04:02.365Z,17.39
2016-04-04T06:05:02.368Z,17.33
2016-04-04T06:06:02.387Z,17.38
2016-04-04T06:07:02.421Z,17.45
2016-04-04T06:08:02.439Z,17.44
2016-04-04T06:09:02.457Z,17.42
2016-04-04T06:10:02.476Z,17.48
2016-04-04T06:11:02.478Z,17.48
2016-04-04T06:12:02.512Z,17.46
2016-04-04T06:13:02.531Z,17.48
2016-04-04T06:14:02.564Z,17.54
2016-04-04T06:15:02.583Z,17.67
2016-04-04T06:16:02.601Z,17.67
2016-04-04T06:17:02.635Z,17.76
2016-04-04T06:18:02.638Z,17.76
2016-04-04T06:19:02.656Z,17.71
2016-04-04T06:20:02.690Z,17.87
2016-04-04T06:21:02.692Z,17.9
2016-04-04T06:22:02.727Z,17.92
2016-04-04T06:23:02.745Z,17.94
2016-04-04T06:24:02.763Z,18.01
2016-04-04T06:25:02.782Z,18.04
2016-04-04T06:26:02.799Z,18.04
2016-04-04T06:27:02.818Z,18.18
2016-04-04T06:28:02.836Z,18.16
2016-04-04T06:29:02.870Z,18.25
2016-04-04T06:30:02.874Z,18.28
2016-04-04T06:31:02.907Z,18.22
2016-04-04T06:32:02.957Z,18.19
2016-04-04T06:33:02.943Z,18.18
2016-04-04T06:34:02.963Z,18.11
2016-04-04T06:35:03.012Z,18.29
2016-04-04T06:36:03.014Z,18.23
2016-04-04T06:37:03.033Z,18.28
2016-04-04T06:38:03.051Z,18.26
2016-04-04T06:39:03.116Z,18.31
2016-04-04T06:40:03.103Z,18.26
2016-04-04T06:41:03.121Z,18.26
2016-04-04T06:42:03.124Z,18.37
2016-04-04T06:43:03.158Z,18.44
2016-04-04T06:44:03.176Z,18.44
2016-04-04T06:45:03.195Z,18.44
2016-04-04T06:46:03.245Z,18.44
2016-04-04T06:47:03.247Z,18.41
2016-04-04T06:48:03.281Z,18.45
2016-04-04T06:49:03.284Z,18.49
2016-04-04T06:50:03.302Z,18.41
2016-04-04T06:51:03.320Z,18.59
2016-04-04T06:52:03.354Z,18.6
2016-04-04T06:53:03.216Z,18.6
2016-04-04T06:54:03.391Z,18.6
2016-04-04T06:55:03.425Z,18.5
2016-04-04T06:56:03.427Z,18.47
2016-04-04T06:57:03.446Z,18.6
2016-04-04T06:58:03.480Z,18.59
2016-04-04T06:59:03.498Z,18.6
2016-04-04T07:00:03.516Z,18.62
2016-04-04T07:01:03.540Z,18.68
2016-04-04T07:02:03.558Z,18.62
2016-04-04T07:03:03.592Z,18.62
2016-04-04T07:04:03.595Z,18.7
2016-04-04T07:05:03.628Z,18.75
2016-04-04T07:06:03.632Z,18.77
2016-04-04T07:07:03.665Z,18.88
2016-04-04T07:08:03.684Z,18.93
2016-04-04T07:09:03.733Z,18.84
2016-04-04T07:10:03.767Z,18.89
2016-04-04T07:11:03.738Z,18.92
2016-04-04T07:12:03.756Z,18.98
2016-04-04T07:13:03.790Z,18.98
2016-04-04T07:14:03.824Z,18.98
2016-04-04T07:15:03.843Z,19.09
2016-04-04T07:16:03.861Z,19.15
2016-04-04T07:17:03.910Z,19.19
2016-04-04T07:18:03.913Z,19.26
2016-04-04T07:19:03.947Z,19.16
2016-04-04T07:20:03.966Z,19.26
2016-04-04T07:21:03.968Z,19.3
2016-04-04T07:22:03.987Z,19.36
2016-04-04T07:23:04.005Z,19.37
2016-04-04T07:24:04.039Z,19.48
2016-04-04T07:25:04.057Z,19.59
2016-04-04T07:26:04.075Z,19.7
2016-04-04T07:27:04.094Z,19.81
2016-04-04T07:28:04.160Z,19.85
2016-04-04T07:29:04.146Z,19.89
2016-04-04T07:30:04.164Z,20.02
2016-04-04T07:31:04.183Z,20.09
2016-04-04T07:32:04.264Z,20.25
2016-04-04T07:33:04.282Z,20.4
2016-04-04T07:34:04.268Z,20.39
2016-04-04T07:35:04.288Z,20.58
2016-04-04T07:36:04.305Z,20.63
2016-04-04T07:37:04.355Z,20.77
2016-04-04T07:38:04.357Z,20.87
2016-04-04T07:39:04.392Z,20.95
2016-04-04T07:40:04.410Z,21.11
2016-04-04T07:41:04.413Z,21.15
2016-04-04T07:42:04.447Z,21.33
2016-04-04T07:43:04.480Z,21.54
2016-04-04T07:44:04.499Z,21.58
2016-04-04T07:45:04.502Z,21.77
2016-04-04T07:46:04.551Z,21.89
2016-04-04T07:47:04.585Z,22.06
2016-04-04T07:48:04.634Z,22.2
2016-04-04T07:49:04.622Z,22.44
2016-04-04T07:50:04.625Z,22.5
2016-04-04T07:51:04.658Z,22.84
2016-04-04T07:52:04.708Z,23.05
2016-04-04T07:53:04.710Z,23.23
2016-04-04T07:54:04.761Z,23.47
2016-04-04T07:55:04.763Z,23.86
2016-04-04T07:56:04.780Z,24.06
2016-04-04T07:57:04.816Z,24.1
2016-04-04T07:58:04.849Z,24.17
2016-04-04T07:59:04.883Z,24.33
2016-04-04T08:00:04.901Z,24.39
2016-04-04T08:01:04.919Z,24.43
2016-04-04T08:02:04.968Z,24.6
2016-04-04T08:03:04.972Z,24.51
2016-04-04T08:04:05.021Z,24.74
2016-04-04T08:05:05.040Z,24.92
2016-04-04T08:06:05.043Z,25.13
2016-04-04T08:07:05.077Z,25.08
2016-04-04T08:08:05.095Z,25.21
2016-04-04T08:09:05.128Z,25.36
2016-04-04T08:10:05.162Z,25.46
2016-04-04T08:11:05.196Z,25.62
2016-04-04T08:12:05.215Z,25.65
2016-04-04T08:13:05.092Z,25.68
2016-04-04T08:14:05.267Z,25.78
2016-04-04T08:15:05.144Z,25.93
2016-04-04T08:16:05.319Z,26.03
2016-04-04T08:17:05.353Z,26.31
2016-04-04T08:18:05.387Z,26.31
2016-04-04T08:19:05.406Z,26.36
2016-04-04T08:20:05.455Z,26.45
2016-04-04T08:21:05.458Z,26.51
2016-04-04T08:22:05.492Z,26.58
2016-04-04T08:23:05.525Z,26.66
2016-04-04T08:24:05.528Z,26.63
2016-04-04T08:25:05.578Z,26.73
2016-04-04T08:26:05.597Z,27.03
2016-04-04T08:27:05.630Z,27.11
2016-04-04T08:28:05.664Z,27.2
2016-04-04T08:29:05.682Z,27.35
2016-04-04T08:30:05.733Z,27.49
2016-04-04T08:31:05.750Z,27.49
2016-04-04T08:32:05.785Z,27.37
2016-04-04T08:33:05.802Z,27.65
2016-04-04T08:34:05.827Z,27.96
2016-04-04T08:35:05.849Z,28.2
2016-04-04T08:36:05.871Z,28.32
2016-04-04T08:37:05.893Z,28.67
2016-04-04T08:38:05.899Z,29.02
2016-04-04T08:39:05.944Z,29.41
2016-04-04T08:40:05.942Z,29.6
2016-04-04T08:41:05.971Z,29.95
2016-04-04T08:42:06.001Z,30.4
2016-04-04T08:43:06.031Z,30.88
2016-04-04T08:44:06.078Z,31.4
2016-04-04T08:45:06.079Z,31.59
2016-04-04T08:46:06.113Z,31.62
2016-04-04T08:47:06.145Z,31.61
2016-04-04T08:48:06.176Z,31.8
2016-04-04T08:49:06.210Z,32.21
2016-04-04T08:50:06.243Z,32.4
2016-04-04T08:51:06.260Z,32.73
2016-04-04T08:52:06.309Z,32.92
2016-04-04T08:53:06.374Z,33.12
2016-04-04T08:54:06.360Z,33.39
2016-04-04T08:55:06.394Z,33.62
2016-04-04T08:56:06.428Z,33.79
2016-04-04T08:57:06.461Z,34.08
2016-04-04T08:58:06.588Z,34.08
2016-04-04T08:59:06.544Z,33.87
2016-04-04T09:00:06.438Z,33.69
2016-04-04T09:01:06.612Z,33.53
2016-04-04T09:02:06.646Z,33.47
2016-04-04T09:03:06.679Z,33.58
2016-04-04T09:04:06.714Z,33.65
2016-04-04T09:05:06.747Z,33.68
2016-04-04T09:06:06.782Z,33.76
2016-04-04T09:07:06.831Z,33.73
2016-04-04T09:08:06.865Z,33.69
2016-04-04T09:09:06.915Z,33.69
2016-04-04T09:10:06.965Z,33.8
2016-04-04T09:11:06.951Z,33.79
2016-04-04T09:12:06.985Z,33.69
2016-04-04T09:13:07.003Z,33.58
2016-04-04T09:14:07.068Z,33.52
2016-04-04T09:15:07.103Z,33.46
2016-04-04T09:16:07.137Z,33.47
2016-04-04T09:17:07.186Z,32.89
2016-04-04T09:18:07.251Z,32.48
2016-04-04T09:19:07.254Z,32.59
2016-04-04T09:20:07.256Z,32.67
2016-04-04T09:21:07.306Z,32.75
2016-04-04T09:22:07.340Z,32.78
2016-04-04T09:23:07.389Z,32.89
2016-04-04T09:24:07.392Z,32.9
2016-04-04T09:25:07.442Z,33.01
2016-04-04T09:26:07.476Z,33.09
2016-04-04T09:27:07.541Z,33.28
2016-04-04T09:28:07.559Z,33.32
2016-04-04T09:29:07.594Z,33.39
2016-04-04T09:30:07.627Z,33.45
2016-04-04T09:31:07.646Z,33.55
2016-04-04T09:32:07.695Z,33.59
2016-04-04T09:33:07.729Z,33.84
2016-04-04T09:34:07.747Z,33.99
2016-04-04T09:35:07.813Z,33.79
2016-04-04T09:36:07.830Z,33.53
2016-04-04T09:37:07.849Z,33.5
2016-04-04T09:38:07.883Z,33.57
2016-04-04T09:39:07.918Z,33.76
2016-04-04T09:40:07.966Z,34.01
2016-04-04T09:41:08.001Z,34.08
2016-04-04T09:42:08.018Z,34.1
2016-04-04T09:43:08.053Z,34.18
2016-04-04T09:44:08.118Z,34.3
2016-04-04T09:45:08.137Z,34.29
2016-04-04T09:46:08.171Z,34.45
2016-04-04T09:47:08.532Z,34.48
2016-04-04T09:48:08.362Z,34.8
2016-04-04T09:49:08.273Z,34.89
2016-04-04T09:50:08.291Z,35.15
2016-04-04T09:51:08.340Z,35.18
2016-04-04T09:52:08.373Z,35.27
2016-04-04T09:53:08.251Z,35.27
2016-04-04T09:54:08.441Z,35.3
2016-04-04T09:55:08.475Z,35.31
2016-04-04T09:56:08.495Z,35.6
2016-04-04T09:57:08.528Z,35.61
2016-04-04T09:58:08.562Z,35.71
2016-04-04T09:59:08.596Z,35.79
2016-04-04T10:00:08.645Z,35.88
2016-04-04T10:01:08.664Z,35.78
2016-04-04T10:02:08.698Z,35.64
2016-04-04T10:03:08.748Z,35.66
2016-04-04T10:04:08.781Z,35.61
2016-04-04T10:05:08.658Z,35.53
2016-04-04T10:06:08.865Z,35.48
2016-04-04T10:07:08.883Z,35.49
2016-04-04T10:08:08.933Z,35.36
2016-04-04T10:09:08.966Z,35.34
2016-04-04T10:10:09.005Z,35.34
2016-04-04T10:11:09.023Z,35.34
2016-04-04T10:12:09.058Z,35.11
2016-04-04T10:13:09.092Z,34.93
2016-04-04T10:14:09.126Z,34.96
2016-04-04T10:15:09.175Z,34.96
2016-04-04T10:16:09.209Z,34.93
2016-04-04T10:17:09.243Z,34.73
2016-04-04T10:18:09.262Z,34.54
2016-04-04T10:19:09.295Z,34.58
2016-04-04T10:20:09.361Z,34.54
2016-04-04T10:21:09.394Z,34.66
2016-04-04T10:22:09.412Z,34.64
2016-04-04T10:23:09.431Z,34.66
2016-04-04T10:24:09.465Z,34.62
2016-04-04T10:25:09.545Z,34.55
2016-04-04T10:26:09.548Z,34.54
2016-04-04T10:27:09.614Z,34.6
2016-04-04T10:28:09.633Z,34.61
2016-04-04T10:29:09.650Z,34.7
2016-04-04T10:30:09.684Z,34.7
2016-04-04T10:31:09.749Z,34.64
2016-04-04T10:32:09.768Z,34.64
2016-04-04T10:33:09.801Z,34.33
2016-04-04T10:34:09.852Z,34.23
2016-04-04T10:35:09.917Z,34.18
2016-04-04T10:36:09.919Z,34.1
2016-04-04T10:37:09.968Z,34.1
2016-04-04T10:38:09.971Z,34.29
2016-04-04T10:39:10.004Z,34.36
2016-04-04T10:40:10.054Z,34.16
2016-04-04T10:41:10.074Z,34.14
2016-04-04T10:42:10.138Z,34.25
2016-04-04T10:43:10.157Z,34.36
2016-04-04T10:44:10.206Z,34.11
2016-04-04T10:45:10.224Z,34.13
2016-04-04T10:46:24.371Z,34.01
2016-04-04T10:47:10.293Z,33.95
2016-04-04T10:48:10.326Z,34.2
2016-04-04T10:49:10.360Z,34.13
2016-04-04T10:50:10.394Z,34.18
2016-04-04T10:51:10.444Z,33.99
2016-04-04T10:52:10.509Z,33.71
2016-04-04T10:53:10.371Z,33.3
2016-04-04T10:54:10.561Z,33.02
2016-04-04T10:55:10.564Z,33
2016-04-04T10:56:10.597Z,33.3
2016-04-04T10:57:10.631Z,33.46
2016-04-04T10:58:10.666Z,33.27
2016-04-04T10:59:10.700Z,33.5
2016-04-04T11:00:10.733Z,33.2
2016-04-04T11:01:10.799Z,33.3
2016-04-04T11:02:10.817Z,33.47
2016-04-04T11:03:10.852Z,33.52
2016-04-04T11:04:10.885Z,33.62
2016-04-04T11:05:10.919Z,33.69
2016-04-04T11:06:10.952Z,33.83
2016-04-04T11:07:10.988Z,34.02
2016-04-04T11:08:11.036Z,33.99
2016-04-04T11:09:11.096Z,33.62
2016-04-04T11:10:11.082Z,33.68
2016-04-04T11:11:11.117Z,33.64
2016-04-04T11:12:11.166Z,33.4
2016-04-04T11:13:11.200Z,33.19
2016-04-04T11:14:11.218Z,33.15
2016-04-04T11:15:11.253Z,33.37
2016-04-04T11:16:11.302Z,33.47
2016-04-04T11:17:11.336Z,33.36
2016-04-04T11:18:11.354Z,33.23
2016-04-04T11:19:11.389Z,33.14
2016-04-04T11:20:11.422Z,32.97
2016-04-04T11:21:11.456Z,32.95
2016-04-04T11:22:11.490Z,33.09
2016-04-04T11:23:11.525Z,33.23
2016-04-04T11:24:11.558Z,33.4
2016-04-04T11:25:11.608Z,33.45
2016-04-04T11:26:11.626Z,33.64
2016-04-04T11:27:11.675Z,33.76
2016-04-04T11:28:11.694Z,33.84
2016-04-04T11:29:11.744Z,34.01
2016-04-04T11:30:11.777Z,34.08
2016-04-04T11:31:11.827Z,34.1
2016-04-04T11:32:11.813Z,34.13
2016-04-04T11:33:11.863Z,34.21
2016-04-04T11:34:11.896Z,34.16
2016-04-04T11:35:11.946Z,34.3
2016-04-04T11:36:11.965Z,34.4
2016-04-04T11:37:11.998Z,34.39
2016-04-04T11:38:12.037Z,34.24
2016-04-04T11:39:12.073Z,33.83
2016-04-04T11:40:12.090Z,33.77
2016-04-04T11:41:12.140Z,33.81
2016-04-04T11:42:12.189Z,33.83
2016-04-04T11:43:12.301Z,33.62
2016-04-04T11:44:12.226Z,33.65
2016-04-04T11:45:12.259Z,33.53
2016-04-04T11:46:12.294Z,33.61
2016-04-04T11:47:12.343Z,33.49
2016-04-04T11:48:12.564Z,33.34
2016-04-04T11:49:12.395Z,33.37
2016-04-04T11:50:12.444Z,33.52
2016-04-04T11:51:12.479Z,33.2
2016-04-04T11:52:12.513Z,33.12
2016-04-04T11:53:12.531Z,33.11
2016-04-04T11:54:12.549Z,33.27
2016-04-04T11:55:12.616Z,33.24
2016-04-04T11:56:12.633Z,33.24
2016-04-04T11:57:12.683Z,33.11
2016-04-04T11:58:12.717Z,33.02
2016-04-04T11:59:12.751Z,33.01
2016-04-04T12:00:12.785Z,32.92
2016-04-04T12:01:12.802Z,32.86
2016-04-04T12:02:12.821Z,32.87
2016-04-04T12:03:12.855Z,32.71
2016-04-04T12:04:12.904Z,32.67
2016-04-04T12:05:12.938Z,32.6
2016-04-04T12:06:12.972Z,32.73
2016-04-04T12:07:13.022Z,32.82
2016-04-04T12:08:13.025Z,33.05
2016-04-04T12:09:13.058Z,32.96
2016-04-04T12:10:13.093Z,32.67
2016-04-04T12:11:13.126Z,32.48
2016-04-04T12:12:13.161Z,32.58
2016-04-04T12:13:13.179Z,32.68
2016-04-04T12:14:13.245Z,32.75
2016-04-04T12:15:13.262Z,32.73
2016-04-04T12:16:13.312Z,32.68
2016-04-04T12:18:13.380Z,32.4
2016-04-04T12:19:13.398Z,32.3
2016-04-04T12:20:13.432Z,32.14
2016-04-04T12:21:13.467Z,32.03
2016-04-04T12:22:13.484Z,32.14
2016-04-04T12:23:13.534Z,32.26
2016-04-04T12:24:13.569Z,32.23
2016-04-04T12:25:13.586Z,32.23
2016-04-04T12:26:13.636Z,32.29
2016-04-04T12:27:13.655Z,32.27
2016-04-04T12:28:13.688Z,32.26
2016-04-04T12:29:13.800Z,32.45
2016-04-04T12:30:13.755Z,32.53
2016-04-04T12:31:13.805Z,32.49
2016-04-04T12:32:13.840Z,32.64
2016-04-04T12:33:13.857Z,32.65
2016-04-04T12:34:13.891Z,32.78
2016-04-04T12:35:13.925Z,32.77
2016-04-04T12:36:13.959Z,32.78
2016-04-04T12:37:13.978Z,32.85
2016-04-04T12:38:14.027Z,32.85
2016-04-04T12:39:14.061Z,32.7
2016-04-04T12:40:14.096Z,32.49
2016-04-04T12:41:14.114Z,32.59
2016-04-04T12:42:14.163Z,32.56
2016-04-04T12:43:14.166Z,32.48
2016-04-04T12:44:14.200Z,32.51
2016-04-04T12:45:14.250Z,32.51
2016-04-04T12:46:14.283Z,32.67
2016-04-04T12:47:14.333Z,32.59
2016-04-04T12:48:14.351Z,32.64
2016-04-04T12:49:14.369Z,32.6
2016-04-04T12:50:14.403Z,32.6
2016-04-04T12:51:14.437Z,32.8
2016-04-04T12:52:14.471Z,32.75
2016-04-04T12:53:14.521Z,32.71
2016-04-04T12:54:14.569Z,32.87
2016-04-04T12:55:14.572Z,32.68
2016-04-04T12:56:14.607Z,32.67
2016-04-04T12:57:14.624Z,32.49
2016-04-04T12:58:14.675Z,32.34